Time;durP1;ratioP1;P1;durP2;ratioP2;P2;SDS_P1;SDS_P2;PMS_P1;PMS_P2;Temp;Humidity;BMP_temperature;BMP_pressure;BME280_temperature;BME280_humidity;BME280_pressure;Samples;Min_cycle;Max_cycle;Signal;HPM_P1;HPM_P2
2022/12/25 00:02:22;;;;;;;142.53;37.70;;;;;;;5.44;88.63;98717.52;1572921;88;25823;-68
2022/12/25 00:04:48;;;;;;;130.27;36.20;;;;;;;5.35;88.68;98722.15;1617510;87;25634;-68
2022/12/25 00:07:15;;;;;;;53.75;18.87;;;;;;;5.27;88.54;98726.25;1615007;88;27461;-67
2022/12/25 00:09:41;;;;;;;35.95;14.60;;;;;;;5.21;88.99;98727.35;1573164;88;26861;-68
2022/12/25 00:12:07;;;;;;;39.20;15.43;;;;;;;5.19;89.09;98726.02;1594096;88;25658;-67
2022/12/25 00:14:33;;;;;;;102.00;28.42;;;;;;;5.16;89.08;98720.59;1573301;88;26270;-68
2022/12/25 00:16:59;;;;;;;53.73;17.75;;;;;;;5.17;89.09;98724.92;1614674;88;25489;-68
2022/12/25 00:19:25;;;;;;;30.15;11.33;;;;;;;5.15;89.06;98720.30;1615842;88;28234;-68
2022/12/25 00:21:51;;;;;;;59.05;20.25;;;;;;;5.15;89.23;98725.73;1616211;87;25715;-68
2022/12/25 00:24:17;;;;;;;58.52;19.70;;;;;;;5.11;88.76;98732.82;1627403;86;25827;-69
2022/12/25 00:26:43;;;;;;;61.60;20.95;;;;;;;5.05;88.60;98744.78;1631032;86;25728;-67
2022/12/25 00:29:12;;;;;;;45.98;17.02;;;;;;;4.99;88.54;98749.42;1608500;86;25680;-67
2022/12/25 00:31:39;;;;;;;55.63;20.65;;;;;;;4.90;88.42;98760.83;1610309;86;27688;-68
2022/12/25 00:34:05;;;;;;;46.55;17.30;;;;;;;4.84;88.76;98763.27;1610508;86;26373;-68
2022/12/25 00:36:31;;;;;;;57.53;20.00;;;;;;;4.79;89.23;98763.30;1610275;86;25806;-67
2022/12/25 00:38:57;;;;;;;60.78;21.68;;;;;;;4.78;89.45;98765.75;1610840;86;25922;-68
2022/12/25 00:44:12;;;;;;;41.58;16.12;;;;;;;4.74;89.95;98775.50;1607289;88;25745;-66
2022/12/25 00:46:40;;;;;;;38.65;15.25;;;;;;;4.73;90.02;98776.06;1648526;86;25733;-66
2022/12/25 00:49:06;;;;;;;30.57;13.50;;;;;;;4.75;90.16;98774.44;1587220;86;25734;-66
2022/12/25 00:51:32;;;;;;;44.60;17.73;;;;;;;4.77;90.60;98768.17;1629848;86;25649;-67
2022/12/25 00:53:59;;;;;;;33.98;15.18;;;;;;;4.83;90.65;98782.02;1654707;86;25611;-67
2022/12/25 00:56:26;;;;;;;42.62;16.42;;;;;;;4.88;90.75;98780.67;1610366;86;27441;-66
2022/12/25 00:58:54;;;;;;;45.58;17.77;;;;;;;4.94;90.69;98782.83;1587650;86;25572;-66
2022/12/25 01:01:20;;;;;;;45.12;16.75;;;;;;;5.00;90.68;98786.34;1654024;86;25782;-66
2022/12/25 01:03:46;;;;;;;34.88;14.63;;;;;;;5.04;90.94;98789.34;1607380;86;25840;-66
2022/12/25 01:06:13;;;;;;;33.33;12.55;;;;;;;5.10;90.76;98799.11;1587552;86;25714;-66
2022/12/25 01:11:12;;;;;;;19.37;8.10;;;;;;;5.15;90.93;98803.98;1553423;91;25931;-66
2022/12/25 01:13:38;;;;;;;20.27;9.33;;;;;;;5.18;90.91;98812.69;1574817;91;25608;-66
2022/12/25 01:16:09;;;;;;;18.30;7.97;;;;;;;5.18;90.82;98803.97;1533615;89;25877;-66
2022/12/25 01:18:36;;;;;;;20.17;9.40;;;;;;;5.20;90.89;98811.85;1575734;91;25808;-66
2022/12/25 01:21:11;;;;;;;20.45;9.55;;;;;;;5.22;90.71;98811.87;1541830;89;28075;-70
2022/12/25 01:23:37;;;;;;;20.35;10.10;;;;;;;5.24;90.69;98816.47;1558349;89;25826;-67
2022/12/25 01:26:10;;;;;;;20.02;9.95;;;;;;;5.28;90.72;98816.74;1578299;89;25813;-69
2022/12/25 01:28:38;;;;;;;23.12;10.03;;;;;;;5.31;90.57;98812.66;1598831;89;27780;-66
2022/12/25 01:31:11;;;;;;;23.30;10.20;;;;;;;5.30;90.59;98814.58;1557470;89;25814;-69
2022/12/25 01:33:39;;;;;;;39.23;14.95;;;;;;;5.30;90.61;98816.47;1578243;89;28334;-66
2022/12/25 01:36:16;;;;;;;34.43;13.20;;;;;;;5.27;90.78;98813.77;1558069;89;25847;-66
2022/12/25 01:38:43;;;;;;;30.43;13.83;;;;;;;5.27;90.71;98817.84;1599161;89;25709;-68
2022/12/25 01:41:12;;;;;;;20.35;9.93;;;;;;;5.26;90.71;98822.98;1598670;89;25762;-67
2022/12/25 01:43:58;;;;;;;22.90;10.78;;;;;;;5.24;90.72;98822.46;1558042;89;25881;-67
2022/12/25 01:46:24;;;;;;;25.02;10.13;;;;;;;5.24;90.73;98821.11;1578280;89;27425;-67
2022/12/25 01:48:53;;;;;;;29.90;12.70;;;;;;;5.24;90.73;98838.20;1587111;86;26815;-66
2022/12/25 01:51:26;;;;;;;26.65;11.93;;;;;;;5.26;90.59;98840.64;1659469;85;25767;-66
2022/12/25 01:53:52;;;;;;;41.20;16.17;;;;;;;5.29;90.53;98837.38;1629409;86;25485;-67
2022/12/25 01:56:19;;;;;;;28.02;11.88;;;;;;;5.32;90.58;98838.76;1630098;86;25654;-67
2022/12/25 01:58:45;;;;;;;24.20;9.53;;;;;;;5.35;90.48;98840.90;1632190;86;27621;-67
2022/12/25 02:01:12;;;;;;;20.45;8.70;;;;;;;5.37;90.42;98840.91;1610245;86;25509;-67
2022/12/25 02:03:41;;;;;;;24.32;11.30;;;;;;;5.39;90.35;98842.00;1655251;86;25596;-67
2022/12/25 02:06:08;;;;;;;23.98;11.88;;;;;;;5.37;90.21;98840.09;1626118;87;25660;-67
2022/12/25 02:08:34;;;;;;;20.00;10.25;;;;;;;5.37;90.45;98841.45;1603408;87;25707;-67
2022/12/25 02:11:00;;;;;;;17.55;8.28;;;;;;;5.38;90.40;98836.27;1630825;85;28501;-67
2022/12/25 02:13:26;;;;;;;18.50;9.30;;;;;;;5.36;90.25;98836.55;1602240;87;25888;-67
2022/12/25 02:15:58;;;;;;;23.65;11.05;;;;;;;5.37;90.19;98838.73;1652922;85;25689;-67
2022/12/25 02:18:56;;;;;;;22.32;10.40;;;;;;;5.39;90.10;98842.00;1623706;87;26734;-67
2022/12/25 02:21:53;;;;;;;21.68;9.78;;;;;;;5.39;90.08;98842.80;1676542;85;25595;-67
2022/12/25 02:24:35;;;;;;;21.97;10.85;;;;;;;5.42;90.15;98846.89;1628913;87;27478;-67
2022/12/25 02:27:16;;;;;;;19.12;9.00;;;;;;;5.44;90.01;98849.33;1595334;88;25508;-67
2022/12/25 02:29:59;;;;;;;17.25;8.68;;;;;;;5.48;90.14;98851.76;1616505;88;25779;-67
2022/12/25 02:32:37;;;;;;;16.57;7.83;;;;;;;5.50;90.09;98850.95;1613668;88;25511;-68
2022/12/25 02:35:11;;;;;;;12.73;5.28;;;;;;;5.48;89.93;98851.76;1612928;88;25727;-68
2022/12/25 02:37:45;;;;;;;15.83;7.60;;;;;;;5.42;89.94;98845.53;1592572;89;27476;-67
2022/12/25 02:40:26;;;;;;;11.53;6.78;;;;;;;5.37;89.94;98849.06;1591671;88;25729;-67
2022/12/25 03:08:45;;;;;;;11.75;5.17;;;;;;;5.46;89.80;98848.49;1575470;90;25835;-68
2022/12/25 03:11:30;;;;;;;10.13;6.03;;;;;;;5.45;89.93;98860.47;1552711;90;25542;-68
2022/12/25 03:16:57;;;;;;;11.30;5.65;;;;;;;5.38;90.05;98850.69;1592653;90;25752;-68
2022/12/25 03:27:58;;;;;;;14.78;8.43;;;;;;;5.35;90.00;98867.54;1634725;85;25664;-68
2022/12/25 04:38:08;;;;;;;20.85;11.00;;;;;;;5.13;89.93;98927.05;1632051;86;25457;-67
2022/12/25 04:40:35;;;;;;;18.77;9.53;;;;;;;5.09;89.99;98921.89;1648110;86;25750;-68
2022/12/25 04:43:01;;;;;;;14.30;8.55;;;;;;;5.05;90.11;98925.42;1644344;86;27534;-67
2022/12/25 04:45:28;;;;;;;18.65;9.55;;;;;;;5.04;90.06;98923.80;1625492;86;26044;-67
2022/12/25 04:47:54;;;;;;;16.12;9.08;;;;;;;5.01;90.01;98923.23;1604767;86;25487;-67
2022/12/25 04:50:21;;;;;;;13.40;6.95;;;;;;;5.03;90.07;98917.54;1604186;86;25646;-67
2022/12/25 04:52:47;;;;;;;16.93;8.45;;;;;;;5.03;90.04;98917.54;1647449;86;25497;-67
2022/12/25 04:55:13;;;;;;;12.90;7.15;;;;;;;5.03;89.90;98909.39;1625832;86;27501;-67
2022/12/25 04:57:40;;;;;;;14.73;7.53;;;;;;;5.04;89.79;98911.57;1603392;86;25647;-67
2022/12/25 05:00:08;;;;;;;13.40;7.42;;;;;;;5.02;89.79;98918.63;1625739;86;25702;-67
2022/12/25 05:02:35;;;;;;;16.23;8.73;;;;;;;5.02;89.60;98918.10;1644190;86;25779;-67
2022/12/25 05:05:01;;;;;;;16.48;7.47;;;;;;;5.01;89.55;98925.16;1625973;86;25600;-67
2022/12/25 05:07:28;;;;;;;15.93;7.22;;;;;;;4.95;89.32;98928.39;1647736;86;27070;-67
2022/12/25 05:09:54;;;;;;;11.85;5.70;;;;;;;4.92;89.41;98927.57;1648469;86;25668;-67
2022/12/25 05:12:20;;;;;;;13.80;6.22;;;;;;;4.85;89.41;98934.64;1647962;86;25649;-67
2022/12/25 05:14:47;;;;;;;18.67;8.30;;;;;;;4.79;89.65;98938.95;1648133;86;25802;-67
2022/12/25 05:17:13;;;;;;;17.10;7.85;;;;;;;4.71;89.73;98950.63;1647848;86;25662;-67
2022/12/25 05:19:39;;;;;;;13.72;7.30;;;;;;;4.63;89.86;98949.23;1648033;86;28257;-66
2022/12/25 05:22:06;;;;;;;16.30;7.83;;;;;;;4.57;90.10;98948.13;1625898;86;25757;-67
2022/12/25 05:24:33;;;;;;;12.05;6.47;;;;;;;4.51;89.99;98941.34;1605417;85;25820;-67
2022/12/25 05:26:59;;;;;;;12.68;6.55;;;;;;;4.48;90.40;98934.26;1626924;85;25716;-67
2022/12/25 05:29:26;;;;;;;13.35;6.20;;;;;;;4.45;90.36;98932.08;1623431;87;25811;-67
2022/12/25 05:31:53;;;;;;;7.55;3.72;;;;;;;4.43;90.73;98932.91;1645884;87;27352;-67
2022/12/25 05:34:19;;;;;;;11.28;5.87;;;;;;;4.41;90.94;98929.62;1600825;87;25836;-67
2022/12/25 05:36:45;;;;;;;14.33;6.30;;;;;;;4.42;90.86;98932.61;1601998;87;25711;-68
2022/12/25 05:39:11;;;;;;;13.80;6.47;;;;;;;4.42;90.67;98930.72;1623140;87;25787;-67
2022/12/25 05:41:38;;;;;;;10.48;5.30;;;;;;;4.41;90.82;98934.52;1601128;87;25727;-67
2022/12/25 05:44:04;;;;;;;13.10;6.25;;;;;;;4.40;90.86;98941.02;1600841;87;27567;-67
2022/12/25 05:46:30;;;;;;;14.55;8.93;;;;;;;4.41;90.72;98952.70;1670371;85;25698;-67
2022/12/25 05:48:57;;;;;;;13.50;6.30;;;;;;;4.42;90.77;98955.14;1649886;85;25625;-67
2022/12/25 05:51:24;;;;;;;9.88;5.78;;;;;;;4.38;90.82;98956.77;1650427;85;25951;-67
2022/12/25 05:53:51;;;;;;;11.48;7.10;;;;;;;4.34;90.65;98961.89;1626896;85;25755;-67
2022/12/25 05:56:18;;;;;;;15.50;8.60;;;;;;;4.29;90.52;98964.57;1650057;85;27590;-67
2022/12/25 05:58:44;;;;;;;15.38;7.75;;;;;;;4.25;90.53;98971.61;1627852;85;26041;-67
2022/12/25 06:01:14;;;;;;;14.60;7.95;;;;;;;4.18;90.51;98969.69;1627915;85;25556;-66
2022/12/25 06:03:41;;;;;;;12.37;6.95;;;;;;;4.13;90.50;98974.02;1627536;85;25574;-66
2022/12/25 06:06:09;;;;;;;13.70;7.72;;;;;;;4.05;90.43;98974.50;1649898;85;25774;-67
2022/12/25 06:08:45;;;;;;;15.45;7.50;;;;;;;4.01;90.54;98976.91;1606873;85;28167;-67
2022/12/25 06:11:14;;;;;;;15.95;8.03;;;;;;;3.99;90.31;98979.61;1627874;85;25480;-67
2022/12/25 06:13:40;;;;;;;18.20;8.75;;;;;;;3.97;90.48;98984.50;1650464;85;25802;-67
2022/12/25 06:16:09;;;;;;;17.52;9.10;;;;;;;3.97;90.85;98988.56;1606502;85;26425;-67
2022/12/25 06:18:40;;;;;;;18.50;10.28;;;;;;;3.96;90.76;98985.03;1627972;85;25647;-67
2022/12/25 06:21:12;;;;;;;21.42;9.08;;;;;;;3.96;90.86;98983.67;1649969;85;27454;-67
2022/12/25 06:23:39;;;;;;;20.25;9.25;;;;;;;3.97;91.09;98991.28;1649942;85;25957;-67
2022/12/25 06:26:08;;;;;;;19.37;7.37;;;;;;;3.97;91.03;98998.06;1603392;86;25571;-67
2022/12/25 06:28:35;;;;;;;18.60;9.05;;;;;;;3.97;91.29;98993.98;1648330;86;25832;-67
2022/12/25 06:31:10;;;;;;;20.15;8.98;;;;;;;3.99;91.23;99001.31;1604522;86;25844;-67
2022/12/25 06:33:36;;;;;;;15.15;7.15;;;;;;;3.99;91.38;99001.31;1648036;86;27388;-67
2022/12/25 06:36:12;;;;;;;15.08;6.53;;;;;;;4.00;91.72;98994.83;1625763;86;25681;-67
2022/12/25 06:38:39;;;;;;;16.62;10.55;;;;;;;3.98;91.90;98997.80;1645360;86;25564;-67
2022/12/25 06:41:13;;;;;;;15.60;9.18;;;;;;;3.96;92.14;98996.41;1576596;87;26716;-66
2022/12/25 06:43:39;;;;;;;19.05;9.43;;;;;;;3.94;92.18;99005.36;1646202;86;25470;-67
2022/12/25 06:46:09;;;;;;;23.18;10.63;;;;;;;3.91;92.08;99010.75;1608888;87;27579;-67
2022/12/25 06:48:38;;;;;;;20.57;10.40;;;;;;;3.90;91.94;99014.55;1575962;87;25828;-67
2022/12/25 06:51:05;;;;;;;20.68;10.35;;;;;;;3.93;92.02;99019.45;1624392;86;25765;-67
2022/12/25 06:53:32;;;;;;;23.07;11.35;;;;;;;3.93;92.35;99024.87;1601787;86;25636;-67
2022/12/25 06:56:14;;;;;;;25.62;11.65;;;;;;;3.95;92.12;99029.50;1635370;85;25774;-67
2022/12/25 06:58:41;;;;;;;28.83;12.03;;;;;;;3.96;91.87;99032.48;1666750;85;25922;-67
2022/12/25 07:01:14;;;;;;;21.12;11.30;;;;;;;3.96;91.62;99046.57;1606887;85;25875;-67
2022/12/25 07:03:40;;;;;;;27.58;12.58;;;;;;;3.94;91.31;99054.97;1629969;85;25544;-67
2022/12/25 07:06:06;;;;;;;23.27;12.25;;;;;;;3.91;90.92;99059.55;1670198;85;26622;-67
2022/12/25 07:08:32;;;;;;;21.25;11.70;;;;;;;3.88;90.87;99064.96;1650933;85;25668;-67
2022/12/25 07:10:59;;;;;;;29.15;12.28;;;;;;;3.84;91.00;99071.98;1650103;85;27161;-67
2022/12/25 07:13:25;;;;;;;21.73;10.48;;;;;;;3.80;90.82;99080.89;1628565;85;25796;-67
2022/12/25 07:15:59;;;;;;;23.75;11.30;;;;;;;3.72;90.72;99079.47;1628627;85;25906;-67
2022/12/25 07:18:27;;;;;;;25.12;12.68;;;;;;;3.63;90.66;99080.48;1647055;85;25709;-66
2022/12/25 07:20:58;;;;;;;27.35;12.45;;;;;;;3.58;90.84;99078.55;1670105;85;25407;-66
2022/12/25 07:23:25;;;;;;;22.42;12.15;;;;;;;3.58;90.92;99090.73;1606424;86;26712;-66
2022/12/25 07:25:57;;;;;;;22.58;12.10;;;;;;;3.54;90.73;99090.95;1649101;85;25736;-66
2022/12/25 07:28:24;;;;;;;24.32;11.95;;;;;;;3.57;91.11;99093.14;1655707;86;25502;-66
2022/12/25 07:30:51;;;;;;;24.72;12.35;;;;;;;3.59;90.71;99084.77;1618669;87;26499;-67
2022/12/25 07:33:18;;;;;;;23.15;12.07;;;;;;;3.63;90.83;99085.34;1608775;86;25672;-67
2022/12/25 07:35:44;;;;;;;25.70;12.15;;;;;;;3.71;90.77;99090.05;1624592;86;27401;-67
2022/12/25 07:38:11;;;;;;;41.70;19.02;;;;;;;3.86;91.19;99084.73;1621928;86;26873;-67
2022/12/25 07:40:37;;;;;;;38.38;17.90;;;;;;;4.01;91.14;99086.73;1659823;85;25606;-67
2022/12/25 07:43:04;;;;;;;36.83;17.15;;;;;;;4.13;90.56;99089.30;1648469;85;25779;-67
2022/12/25 07:45:30;;;;;;;43.52;18.62;;;;;;;4.26;90.93;99089.93;1648465;85;25471;-64
2022/12/25 07:47:56;;;;;;;41.25;17.82;;;;;;;4.41;90.97;99087.84;1647840;85;27387;-65
2022/12/25 07:50:23;;;;;;;19.20;9.88;;;;;;;4.50;90.72;99082.73;1648248;85;25516;-65
2022/12/25 07:52:49;;;;;;;19.30;8.98;;;;;;;4.57;90.60;99086.02;1670689;84;25761;-65
2022/12/25 07:55:15;;;;;;;20.97;9.08;;;;;;;4.58;90.50;99093.64;1624820;85;25776;-66
2022/12/25 07:57:41;;;;;;;33.98;20.25;;;;;;;4.60;90.40;99102.31;1670658;85;25664;-65
2022/12/25 08:00:10;;;;;;;16.27;8.58;;;;;;;4.59;90.19;99099.34;1648032;85;27486;-66
2022/12/25 08:02:36;;;;;;;23.12;11.80;;;;;;;4.61;90.45;99097.98;1641861;84;25741;-66
2022/12/25 08:05:03;;;;;;;28.10;13.50;;;;;;;4.63;90.45;99095.83;1625984;86;25538;-66
2022/12/25 08:07:29;;;;;;;25.60;14.58;;;;;;;4.62;90.31;99096.92;1663086;86;25715;-66
2022/12/25 08:09:55;;;;;;;24.18;10.55;;;;;;;4.66;90.62;99097.20;1573159;87;25497;-66
2022/12/25 08:12:21;;;;;;;31.15;13.03;;;;;;;4.72;90.72;99098.86;1646202;86;27439;-66
2022/12/25 08:14:47;;;;;;;22.10;10.60;;;;;;;4.82;91.05;99100.82;1625859;86;25797;-65
2022/12/25 08:17:14;;;;;;;39.90;17.60;;;;;;;4.93;90.68;99110.36;1647225;86;25708;-65
2022/12/25 08:19:40;;;;;;;82.27;35.38;;;;;;;5.08;90.73;99117.75;1588101;86;25838;-66
2022/12/25 08:22:06;;;;;;;48.68;23.52;;;;;;;5.19;89.92;99114.54;1602278;86;25734;-65
2022/12/25 08:24:32;;;;;;;99.95;43.40;;;;;;;5.38;90.40;99115.68;1574419;87;28426;-67
2022/12/25 08:26:58;;;;;;;34.60;16.15;;;;;;;5.60;90.13;99102.41;1630861;85;25719;-66
2022/12/25 08:29:27;;;;;;;105.97;43.87;;;;;;;5.78;89.18;99095.63;1603518;87;25754;-66
2022/12/25 08:31:53;;;;;;;18.90;9.30;;;;;;;5.92;88.33;99091.55;1653016;85;25742;-66
2022/12/25 08:34:20;;;;;;;41.30;16.67;;;;;;;6.00;87.98;99093.73;1649312;85;25449;-66
2022/12/25 08:36:46;;;;;;;29.10;13.58;;;;;;;6.14;87.74;99096.19;1650167;85;27346;-66
2022/12/25 08:39:12;;;;;;;1110.53;466.73;;;;;;;6.24;87.00;99095.38;1672103;85;25671;-66
2022/12/25 08:41:39;;;;;;;88.92;32.63;;;;;;;6.31;86.50;99098.36;1648849;85;25662;-66
2022/12/25 08:44:13;;;;;;;245.97;111.28;;;;;;;6.45;86.24;99110.30;1605458;85;25811;-66
2022/12/25 08:46:40;;;;;;;176.10;63.08;;;;;;;6.65;86.27;99108.09;1648258;85;25540;-66
2022/12/25 08:49:06;;;;;;;338.55;122.80;;;;;;;6.89;85.94;99117.03;1604975;85;27661;-66
2022/12/25 08:51:33;;;;;;;43.00;17.52;;;;;;;7.10;85.98;99116.94;1648449;85;25690;-66
2022/12/25 08:53:59;;;;;;;700.38;267.23;;;;;;;7.24;85.01;99123.14;1596715;87;25654;-67
2022/12/25 08:56:26;;;;;;;113.22;36.40;;;;;;;7.39;85.28;99126.34;1581414;87;27378;-66
2022/12/25 08:58:52;;;;;;;137.55;46.05;;;;;;;7.46;83.49;99122.77;1651577;85;25764;-67
2022/12/25 09:01:18;;;;;;;203.10;72.53;;;;;;;7.51;84.45;99115.91;1581960;87;27344;-66
2022/12/25 09:03:45;;;;;;;254.55;88.30;;;;;;;7.62;84.32;99122.12;1629885;85;25741;-66
2022/12/25 09:06:15;;;;;;;125.00;42.05;;;;;;;7.67;83.47;99119.91;1624596;85;25800;-66
2022/12/25 09:08:42;;;;;;;558.58;213.62;;;;;;;7.68;83.40;99117.44;1652077;85;26121;-66
2022/12/25 09:11:11;;;;;;;378.10;133.52;;;;;;;7.70;83.50;99119.88;1629750;85;25720;-66
2022/12/25 09:13:38;;;;;;;264.57;92.30;;;;;;;7.70;82.51;99123.44;1602707;87;27652;-65
2022/12/25 09:16:11;;;;;;;94.90;36.58;;;;;;;7.72;82.07;99125.88;1629770;85;26117;-66
2022/12/25 09:18:41;;;;;;;130.85;51.80;;;;;;;7.73;82.20;99118.78;1601796;87;25495;-65
2022/12/25 09:21:11;;;;;;;201.60;71.73;;;;;;;7.81;82.61;99118.73;1607718;85;25930;-65
2022/12/25 09:23:38;;;;;;;88.90;31.07;;;;;;;7.85;81.42;99122.51;1627937;85;25752;-65
2022/12/25 09:26:07;;;;;;;143.75;51.28;;;;;;;7.93;81.93;99119.73;1645717;86;27645;-65
2022/12/25 09:28:34;;;;;;;100.62;36.08;;;;;;;8.10;82.37;99116.59;1597502;87;25841;-65
2022/12/25 09:31:01;;;;;;;45.55;19.45;;;;;;;8.32;81.49;99111.77;1649014;85;25630;-65
2022/12/25 09:33:27;;;;;;;56.15;20.57;;;;;;;8.54;81.21;99120.86;1606701;85;25781;-65
2022/12/25 09:36:00;;;;;;;115.88;41.30;;;;;;;8.77;79.79;99130.19;1614514;87;25718;-65
2022/12/25 09:38:28;;;;;;;154.72;55.95;;;;;;;8.97;78.56;99132.97;1642473;87;28304;-66
2022/12/25 09:41:08;;;;;;;19.40;10.18;;;;;;;9.22;79.29;99131.87;1654906;85;25934;-65
2022/12/25 09:43:40;;;;;;;24.60;12.68;;;;;;;9.44;79.19;99138.67;1669797;85;25638;-66
2022/12/25 09:46:12;;;;;;;34.25;15.13;;;;;;;9.65;78.29;99135.09;1650473;85;25645;-65
2022/12/25 09:48:43;;;;;;;107.35;37.20;;;;;;;9.75;77.00;99132.78;1652827;86;25673;-65
2022/12/25 09:51:15;;;;;;;219.15;76.20;;;;;;;9.83;76.84;99135.41;1673433;84;27359;-65
2022/12/25 09:53:50;;;;;;;210.15;67.12;;;;;;;9.99;76.70;99137.33;1638310;85;25749;-65
2022/12/25 09:56:26;;;;;;;397.33;158.90;;;;;;;10.18;76.49;99148.83;1685729;84;25531;-65
2022/12/25 09:58:53;;;;;;;57.13;22.80;;;;;;;10.46;75.05;99137.98;1647663;85;25634;-65
2022/12/25 10:01:33;;;;;;;97.27;34.45;;;;;;;10.82;75.48;99134.33;1625609;85;25733;-65
2022/12/25 10:04:05;;;;;;;77.00;30.70;;;;;;;11.14;72.09;99137.52;1664119;85;27445;-65
2022/12/25 10:07:16;;;;;;;222.45;80.90;;;;;;;11.55;71.58;99127.59;1680792;85;25825;-65
2022/12/25 10:10:06;;;;;;;344.60;119.77;;;;;;;11.92;71.98;99130.91;1645517;86;25736;-65
2022/12/25 10:13:10;;;;;;;63.75;24.70;;;;;;;12.31;71.40;99128.61;1697163;83;25776;-65
2022/12/25 10:15:47;;;;;;;185.95;63.55;;;;;;;12.66;68.83;99129.36;1641430;85;25784;-65
2022/12/25 10:18:54;;;;;;;199.20;65.80;;;;;;;12.92;69.61;99125.35;1666320;85;28463;-65
2022/12/25 10:21:22;;;;;;;63.40;25.72;;;;;;;13.20;68.39;99122.11;1642806;87;25869;-65
2022/12/25 10:24:00;;;;;;;36.70;15.80;;;;;;;13.46;66.15;99123.54;1617925;87;25727;-65
2022/12/25 10:26:29;;;;;;;55.52;21.25;;;;;;;13.58;66.86;99125.69;1632438;86;25765;-64
2022/12/25 10:29:12;;;;;;;99.22;37.42;;;;;;;13.64;64.37;99118.07;1622966;87;25769;-64
2022/12/25 10:31:39;;;;;;;113.17;35.60;;;;;;;13.77;64.81;99125.95;1646276;87;27512;-64
2022/12/25 10:34:06;;;;;;;115.08;49.03;;;;;;;14.09;65.87;99127.97;1623445;87;25493;-64
2022/12/25 10:36:33;;;;;;;133.35;65.03;;;;;;;14.29;63.07;99129.80;1625959;85;25713;-65
2022/12/25 10:38:59;;;;;;;153.90;53.15;;;;;;;14.38;61.36;99125.64;1649410;85;25742;-65
2022/12/25 10:42:02;;;;;;;63.10;26.05;;;;;;;14.52;63.48;99128.20;1604230;85;25630;-65
2022/12/25 10:44:28;;;;;;;75.95;25.80;;;;;;;14.70;61.57;99126.19;1669940;85;27422;-65
2022/12/25 10:47:00;;;;;;;58.63;28.98;;;;;;;14.86;60.92;99122.92;1626439;85;25949;-65
2022/12/25 10:49:37;;;;;;;63.73;25.43;;;;;;;14.92;60.99;99111.94;1645636;86;25526;-66
2022/12/25 10:52:21;;;;;;;59.15;28.77;;;;;;;15.12;61.71;99116.47;1668054;86;25663;-66
2022/12/25 10:54:47;;;;;;;22.70;9.78;;;;;;;15.46;60.72;99106.36;1645008;86;25766;-66
2022/12/25 10:57:18;;;;;;;37.45;17.27;;;;;;;15.38;58.55;99115.50;1669599;85;27494;-66
2022/12/25 10:59:48;;;;;;;39.55;17.25;;;;;;;15.42;57.94;99107.59;1605724;85;25931;-66
2022/12/25 11:02:26;;;;;;;23.47;11.10;;;;;;;15.48;57.74;99107.38;1649283;85;25834;-66
2022/12/25 11:05:03;;;;;;;77.27;32.93;;;;;;;15.61;56.37;99107.71;1648521;85;25705;-67
2022/12/25 11:07:31;;;;;;;58.20;32.75;;;;;;;15.72;58.06;99103.16;1646898;85;25727;-67
2022/12/25 11:10:06;;;;;;;42.55;21.45;;;;;;;15.72;57.17;99111.44;1648977;85;27455;-67
2022/12/25 11:12:37;;;;;;;42.53;18.55;;;;;;;15.83;56.54;99105.73;1623484;85;25791;-67
2022/12/25 11:15:25;;;;;;;46.02;21.45;;;;;;;16.04;56.85;99111.85;1649357;85;25709;-68
2022/12/25 11:17:52;;;;;;;40.50;17.80;;;;;;;16.09;53.98;99108.86;1671301;85;25631;-68
2022/12/25 11:20:20;;;;;;;30.57;14.63;;;;;;;16.23;57.17;99098.89;1650326;85;25529;-68
2022/12/25 11:22:48;;;;;;;20.08;10.93;;;;;;;16.41;56.05;99082.12;1622276;87;28307;-68
2022/12/25 11:25:22;;;;;;;27.67;13.38;;;;;;;16.67;54.15;99072.70;1646255;87;25663;-68
2022/12/25 11:28:04;;;;;;;37.20;16.23;;;;;;;16.97;55.77;99073.84;1649812;85;25538;-68
2022/12/25 11:30:33;;;;;;;42.65;19.30;;;;;;;17.04;52.80;99074.66;1624871;85;26618;-68
2022/12/25 11:33:06;;;;;;;54.73;33.05;;;;;;;17.10;52.38;99074.66;1603228;85;25647;-68
2022/12/25 11:35:44;;;;;;;28.73;16.62;;;;;;;17.05;53.55;99074.32;1647124;85;27446;-67
2022/12/25 11:38:11;;;;;;;106.32;48.30;;;;;;;17.22;51.85;99071.66;1671522;85;25933;-68
2022/12/25 11:40:50;;;;;;;78.75;36.90;;;;;;;17.24;53.66;99066.59;1649921;85;25677;-68
2022/12/25 11:43:37;;;;;;;16.45;9.73;;;;;;;17.37;51.41;99061.25;1668570;84;25791;-68
2022/12/25 11:46:30;;;;;;;21.90;11.43;;;;;;;17.46;49.24;99068.60;1644506;86;25533;-69
2022/12/25 11:49:05;;;;;;;14.25;7.78;;;;;;;17.35;50.95;99060.78;1623408;87;27360;-69
2022/12/25 11:51:36;;;;;;;35.70;16.80;;;;;;;17.50;48.97;99054.30;1623058;87;26441;-69
2022/12/25 11:54:16;;;;;;;22.58;11.80;;;;;;;17.87;51.48;99051.94;1623408;87;25782;-69
2022/12/25 11:56:43;;;;;;;16.12;8.88;;;;;;;18.32;52.07;99050.01;1623411;87;25766;-68
2022/12/25 11:59:24;;;;;;;21.23;11.08;;;;;;;18.88;47.61;99044.62;1632087;85;25709;-68
2022/12/25 12:02:23;;;;;;;14.35;7.70;;;;;;;19.09;49.62;99048.52;1671877;85;27630;-69
2022/12/25 12:05:04;;;;;;;18.10;9.53;;;;;;;18.83;45.75;99050.45;1646604;87;25443;-69
2022/12/25 12:07:34;;;;;;;13.95;7.67;;;;;;;18.36;47.46;99044.56;1621277;88;25713;-69
2022/12/25 12:10:20;;;;;;;10.38;6.12;;;;;;;18.58;48.61;99043.70;1600617;88;25661;-69
2022/12/25 12:13:01;;;;;;;14.95;8.88;;;;;;;18.58;46.26;99038.95;1598821;88;25813;-69
2022/12/25 12:15:47;;;;;;;12.95;6.47;;;;;;;18.52;47.68;99036.23;1618131;88;27487;-68
2022/12/25 12:18:30;;;;;;;16.07;9.30;;;;;;;18.64;47.42;99037.53;1616199;88;25907;-68
2022/12/25 12:21:22;;;;;;;12.75;7.72;;;;;;;18.77;48.25;99035.44;1616778;88;25687;-69
2022/12/25 12:24:05;;;;;;;10.88;6.80;;;;;;;18.90;47.65;99036.72;1611283;88;26360;-68
2022/12/25 12:26:36;;;;;;;10.25;6.10;;;;;;;19.09;46.00;99031.84;1571263;90;25837;-69
2022/12/25 12:29:07;;;;;;;12.68;7.08;;;;;;;19.03;46.45;99032.66;1591438;90;27016;-69
2022/12/25 12:31:42;;;;;;;14.47;8.85;;;;;;;18.86;46.14;99035.27;1596523;88;25530;-68
2022/12/25 12:34:30;;;;;;;9.75;6.62;;;;;;;18.78;45.51;99043.20;1569385;90;25696;-69
2022/12/25 12:37:10;;;;;;;15.18;7.83;;;;;;;18.60;45.08;99042.19;1616978;88;26543;-69
2022/12/25 12:39:38;;;;;;;10.43;5.87;;;;;;;18.46;45.54;99030.72;1613302;88;25505;-69
2022/12/25 12:42:15;;;;;;;5.53;3.85;;;;;;;18.56;45.88;99024.05;1595905;88;27317;-69
2022/12/25 12:44:42;;;;;;;6.30;3.60;;;;;;;18.45;44.63;99029.12;1636502;87;25734;-69
2022/12/25 12:47:32;;;;;;;9.68;5.17;;;;;;;17.96;44.32;99018.53;1626705;85;25715;-69
2022/12/25 12:50:00;;;;;;;7.78;4.95;;;;;;;17.94;46.53;99022.45;1643966;85;25767;-69
2022/12/25 12:52:40;;;;;;;10.48;6.72;;;;;;;17.99;46.08;99025.55;1606384;85;25825;-69
2022/12/25 12:55:11;;;;;;;13.40;8.28;;;;;;;17.85;45.33;99041.80;1650138;85;25846;-69
2022/12/25 12:57:39;;;;;;;13.90;8.10;;;;;;;17.76;46.84;99041.97;1603964;85;25742;-69
2022/12/25 13:00:18;;;;;;;14.68;8.88;;;;;;;17.76;45.34;99053.84;1614831;84;25541;-69
2022/12/25 13:03:13;;;;;;;19.65;9.90;;;;;;;17.40;45.88;99051.42;1628535;85;25725;-69
2022/12/25 13:05:46;;;;;;;11.50;6.53;;;;;;;17.26;46.46;99055.38;1670770;85;25753;-69
2022/12/25 13:09:07;;;;;;;11.95;6.53;;;;;;;17.38;46.71;99055.93;1671886;85;26003;-69
2022/12/25 13:11:39;;;;;;;11.53;6.70;;;;;;;17.43;46.15;99056.27;1646919;85;25768;-70
2022/12/25 13:14:05;;;;;;;9.33;5.60;;;;;;;17.47;47.07;99054.40;1649391;85;25882;-69
2022/12/25 13:16:39;;;;;;;11.57;6.95;;;;;;;17.51;46.62;99055.33;1626692;85;25720;-68
2022/12/25 13:19:13;;;;;;;16.52;8.28;;;;;;;17.54;47.26;99057.41;1647505;86;25945;-68
2022/12/25 13:21:44;;;;;;;11.50;6.55;;;;;;;17.61;46.36;99056.78;1644972;86;27335;-68
2022/12/25 14:06:28;;;;;;;21.23;9.28;;;;;;;11.53;55.84;99031.59;1872143;74;25455;-70
2022/12/25 14:08:57;;;;;;;18.23;9.03;;;;;;;11.14;56.30;99036.02;1821800;77;25613;-70
2022/12/25 14:11:26;;;;;;;16.30;8.18;;;;;;;10.84;57.06;99045.72;1835672;76;27451;-66
2022/12/25 14:14:01;;;;;;;14.43;7.08;;;;;;;10.58;57.65;99052.53;1854361;76;25664;-67
2022/12/25 14:16:28;;;;;;;13.90;10.72;;;;;;;10.36;58.25;99051.27;1854490;76;25678;-67